Time;durP1;ratioP1;P1;durP2;ratioP2;P2;SDS_P1;SDS_P2;PMS_P1;PMS_P2;Temp;Humidity;BMP_temperature;BMP_pressure;BME280_temperature;BME280_humidity;BME280_pressure;Samples;Min_cycle;Max_cycle;Signal;HPM_P1;HPM_P2
2023/05/22 00:01:31;;;;;;;3.90;3.50;;;;;;;11.05;66.05;100230.93;220445;1256;140516;-72
2023/05/22 00:06:45;;;;;;;5.30;3.70;;;;;;;11.00;66.43;100230.96;218727;1257;140241;-70
2023/05/22 00:11:50;;;;;;;4.40;4.00;;;;;;;10.91;66.68;100228.96;220139;1257;140448;-71
2023/05/22 00:16:57;;;;;;;6.90;4.00;;;;;;;10.84;66.81;100226.62;219252;1260;140501;-67
2023/05/22 00:22:03;;;;;;;;;;;;;;;10.76;67.19;100223.39;217913;1260;140576;-68
2023/05/22 00:27:08;;;;;;;5.00;3.00;;;;;;;10.61;67.59;100216.28;218177;1259;127102;-70
2023/05/22 00:32:13;;;;;;;6.60;3.90;;;;;;;10.48;67.69;100214.09;218739;1256;140194;-69
2023/05/22 00:37:20;;;;;;;4.20;3.90;;;;;;;10.42;68.11;100209.10;217894;1257;139971;-66
2023/05/22 00:42:24;;;;;;;14.80;5.20;;;;;;;10.38;68.26;100204.61;218776;1257;141761;-68
2023/05/22 00:47:29;;;;;;;7.00;4.80;;;;;;;10.31;68.51;100200.59;217724;1260;141982;-68
2023/05/22 00:52:36;;;;;;;4.80;3.80;;;;;;;10.24;68.71;100197.86;218879;1257;140560;-69
2023/05/22 00:57:42;;;;;;;6.40;4.50;;;;;;;10.10;68.67;100195.65;217832;1258;212084;-67
2023/05/22 01:02:46;;;;;;;6.60;4.60;;;;;;;10.01;69.08;100195.05;217640;1260;141187;-68
2023/05/22 01:07:52;;;;;;;5.90;4.90;;;;;;;9.98;69.31;100194.09;218265;1256;140431;-66
2023/05/22 01:13:23;;;;;;;6.70;4.20;;;;;;;9.95;69.59;100197.80;217748;1259;139797;-67
2023/05/22 01:18:51;;;;;;;4.50;3.70;;;;;;;9.89;69.63;100199.41;217721;1262;140774;-70
2023/05/22 01:24:20;;;;;;;7.40;3.60;;;;;;;9.80;69.66;100203.71;217322;1258;141834;-71
2023/05/22 01:29:45;;;;;;;4.60;4.20;;;;;;;9.63;69.91;100204.67;218532;1260;140194;-72
2023/05/22 01:34:55;;;;;;;9.10;3.70;;;;;;;9.52;70.24;100204.41;217724;1261;140165;-69
2023/05/22 01:40:00;;;;;;;8.70;5.10;;;;;;;9.47;70.45;100201.69;218496;1257;141935;-67
2023/05/22 01:45:05;;;;;;;5.50;4.20;;;;;;;9.46;70.73;100201.67;218946;1258;140040;-68
2023/05/22 01:50:09;;;;;;;6.30;4.90;;;;;;;9.41;70.55;100203.62;218800;1260;140255;-68
2023/05/22 01:55:19;;;;;;;6.30;5.00;;;;;;;9.35;70.66;100201.29;219041;1258;139896;-68
2023/05/22 02:00:25;;;;;;;7.80;4.20;;;;;;;9.31;70.68;100201.91;218111;1260;139621;-67
2023/05/22 02:05:34;;;;;;;6.10;5.00;;;;;;;9.25;71.18;100204.81;220104;1260;140001;-69
2023/05/22 02:10:41;;;;;;;6.30;4.20;;;;;;;9.23;71.28;100206.79;219729;1256;140125;-67
2023/05/22 02:15:46;;;;;;;8.00;4.90;;;;;;;9.20;71.14;100207.85;218210;1257;139873;-67
2023/05/22 02:20:51;;;;;;;4.20;3.60;;;;;;;9.10;71.25;100202.96;218141;1259;139693;-66
2023/05/22 02:25:56;;;;;;;5.10;3.70;;;;;;;9.03;71.67;100203.35;219699;1256;140999;-68
2023/05/22 02:31:02;;;;;;;4.50;4.00;;;;;;;8.96;71.87;100196.92;218032;1258;140873;-68
2023/05/22 02:36:09;;;;;;;6.60;5.40;;;;;;;8.91;72.08;100191.46;219231;1257;141666;-68
2023/05/22 02:41:15;;;;;;;5.80;4.60;;;;;;;8.87;72.25;100189.49;218422;1257;139919;-68
2023/05/22 02:46:22;;;;;;;7.30;3.40;;;;;;;8.85;72.40;100187.14;217641;1257;139878;-69
2023/05/22 02:51:26;;;;;;;5.70;4.40;;;;;;;8.83;72.85;100184.83;217685;1258;140454;-68
2023/05/22 02:56:30;;;;;;;4.60;3.30;;;;;;;8.82;72.93;100181.72;217979;1257;139810;-68
2023/05/22 03:01:35;;;;;;;4.50;4.10;;;;;;;8.80;73.16;100179.02;217805;1259;140165;-68
2023/05/22 03:06:39;;;;;;;5.80;4.20;;;;;;;8.82;73.39;100180.29;218241;1259;140545;-68
2023/05/22 03:11:42;;;;;;;4.90;4.00;;;;;;;8.86;73.24;100180.35;217919;1260;139878;-67
2023/05/22 03:16:46;;;;;;;5.30;4.50;;;;;;;8.87;73.38;100177.91;217831;1257;139990;-66
2023/05/22 03:21:51;;;;;;;4.20;3.80;;;;;;;8.91;73.49;100177.77;217322;1260;888856;-67
2023/05/22 03:26:57;;;;;;;3.70;3.40;;;;;;;9.00;73.65;100175.95;218308;1259;140890;-67
2023/05/22 03:32:03;;;;;;;9.60;4.50;;;;;;;9.11;73.72;100171.94;218322;1260;140295;-68
2023/05/22 03:37:08;;;;;;;5.20;4.10;;;;;;;9.37;73.86;100166.67;218306;1257;139733;-67
2023/05/22 03:42:12;;;;;;;4.40;4.00;;;;;;;9.62;74.16;100166.19;217966;1257;141058;-68
2023/05/22 03:47:17;;;;;;;4.40;3.90;;;;;;;9.82;74.13;100170.34;219344;1257;141070;-68
2023/05/22 03:52:22;;;;;;;5.40;4.70;;;;;;;10.12;74.07;100169.04;217817;1260;140454;-68
2023/05/22 03:57:27;;;;;;;4.60;3.70;;;;;;;10.36;74.05;100178.88;220152;1257;140546;-69
2023/05/22 04:02:31;;;;;;;4.30;3.80;;;;;;;10.60;74.12;100179.23;219913;1257;140977;-69
2023/05/22 04:07:36;;;;;;;4.80;4.00;;;;;;;10.96;74.15;100178.66;220243;1257;142569;-72
2023/05/22 04:12:40;;;;;;;9.40;4.10;;;;;;;11.34;73.93;100178.23;220283;1256;140627;-72
2023/05/22 04:17:48;;;;;;;6.70;4.00;;;;;;;11.83;73.52;100172.63;217912;1260;140674;-68
2023/05/22 04:22:53;;;;;;;5.10;4.60;;;;;;;12.22;73.18;100169.55;218399;1259;140732;-69
2023/05/22 04:27:58;;;;;;;4.60;4.20;;;;;;;12.53;72.83;100164.33;217982;1257;139762;-67
2023/05/22 04:33:04;;;;;;;6.00;4.00;;;;;;;12.91;72.58;100161.20;218222;1257;140693;-67
2023/05/22 04:38:09;;;;;;;15.40;5.70;;;;;;;13.30;72.00;100163.27;219157;1255;140690;-71
2023/05/22 04:43:17;;;;;;;5.70;4.90;;;;;;;13.51;71.39;100159.00;218309;1257;140277;-70
2023/05/22 04:48:22;;;;;;;6.80;4.50;;;;;;;13.68;71.01;100160.23;217615;1258;139970;-69
2023/05/22 04:53:29;;;;;;;4.80;4.40;;;;;;;13.88;70.84;100159.30;218055;1257;140040;-68
2023/05/22 04:58:36;;;;;;;7.10;5.00;;;;;;;14.09;70.85;100159.48;217483;1260;142080;-68
2023/05/22 05:03:43;;;;;;;5.70;5.20;;;;;;;14.30;70.72;100158.71;218659;1257;141082;-69
2023/05/22 05:08:51;;;;;;;5.30;4.80;;;;;;;14.60;70.33;100156.15;218451;1257;140064;-68
2023/05/22 05:14:00;;;;;;;15.70;5.30;;;;;;;15.44;69.62;100159.43;217829;1257;141841;-70
2023/05/22 05:19:05;;;;;;;;;;;;;;;18.31;66.12;100151.02;217747;1257;140977;-71
2023/05/22 05:24:11;;;;;;;7.20;4.40;;;;;;;20.92;63.27;100151.99;218370;1258;126771;-68
2023/05/22 05:29:19;;;;;;;8.60;4.50;;;;;;;23.57;59.71;100158.01;218735;1258;139825;-68
2023/05/22 05:34:27;;;;;;;6.20;5.30;;;;;;;26.45;55.59;100165.53;217761;1261;206702;-67
2023/05/22 05:39:32;;;;;;;5.10;4.70;;;;;;;29.02;50.97;100170.58;219118;1257;139316;-69
2023/05/22 05:44:38;;;;;;;6.50;3.60;;;;;;;31.08;46.94;100164.86;218184;1260;139639;-67
2023/05/22 05:49:42;;;;;;;8.20;3.40;;;;;;;32.87;43.77;100167.11;218836;1257;139763;-67
2023/05/22 05:54:47;;;;;;;3.20;2.90;;;;;;;34.41;40.82;100165.28;219633;1257;141951;-66
2023/05/22 05:59:52;;;;;;;3.40;2.30;;;;;;;35.01;37.57;100162.97;220157;1257;139692;-66
2023/05/22 06:04:57;;;;;;;2.60;2.10;;;;;;;35.83;35.65;100159.11;219596;1257;139481;-65
2023/05/22 06:10:02;;;;;;;1.90;1.80;;;;;;;36.63;34.36;100158.59;219207;1255;139422;-69
2023/05/22 06:15:08;;;;;;;1.90;1.80;;;;;;;37.24;32.74;100156.33;217840;1256;140086;-68
2023/05/22 06:20:14;;;;;;;2.70;2.00;;;;;;;36.40;31.43;100152.98;219686;1256;139943;-68
2023/05/22 06:25:19;;;;;;;4.00;1.40;;;;;;;35.96;30.76;100150.30;218075;1258;139379;-67
2023/05/22 06:30:23;;;;;;;5.40;1.60;;;;;;;34.82;30.50;100148.77;219153;1256;140226;-68
2023/05/22 06:35:47;;;;;;;3.60;1.80;;;;;;;33.59;30.26;100149.53;218355;1257;138884;-71
2023/05/22 06:40:52;;;;;;;2.90;2.40;;;;;;;32.47;30.54;100149.45;217864;1257;140695;-68
2023/05/22 06:45:56;;;;;;;2.40;1.70;;;;;;;31.60;31.37;100146.73;219256;1256;139564;-67
2023/05/22 06:51:01;;;;;;;5.20;1.80;;;;;;;31.39;31.63;100146.63;218543;1257;139483;-66
2023/05/22 06:56:06;;;;;;;3.70;1.70;;;;;;;31.07;30.75;100145.66;217828;1260;139548;-66
2023/05/22 07:01:11;;;;;;;3.00;1.80;;;;;;;31.46;30.11;100140.88;218571;1257;139390;-67
2023/05/22 07:06:15;;;;;;;11.90;2.10;;;;;;;32.43;29.97;100133.70;217700;1258;141689;-68
2023/05/22 07:11:19;;;;;;;1.50;1.40;;;;;;;33.60;29.26;100137.94;218461;1256;140102;-70
2023/05/22 07:16:26;;;;;;;2.00;1.70;;;;;;;34.27;28.85;100135.55;217545;1258;140585;-68
2023/05/22 07:21:34;;;;;;;1.50;1.40;;;;;;;33.79;28.53;100135.06;218224;1259;140074;-66
2023/05/22 07:26:45;;;;;;;2.40;1.70;;;;;;;33.07;28.37;100129.15;217976;1258;139396;-67
2023/05/22 07:31:49;;;;;;;1.90;1.70;;;;;;;32.36;28.03;100134.23;218115;1256;140362;-69
2023/05/22 07:36:55;;;;;;;3.10;2.10;;;;;;;31.57;27.92;100134.61;218443;1256;139803;-66
2023/05/22 07:42:03;;;;;;;4.40;2.00;;;;;;;30.83;28.20;100141.23;217803;1258;139180;-69
2023/05/22 07:47:09;;;;;;;3.50;1.80;;;;;;;30.24;28.38;100139.34;217798;1257;139948;-69
2023/05/22 07:52:14;;;;;;;2.10;2.00;;;;;;;30.08;28.71;100138.06;218737;1256;162368;-67
2023/05/22 07:57:19;;;;;;;2.80;2.10;;;;;;;29.92;28.94;100141.29;220206;1256;140295;-68
2023/05/22 08:02:24;;;;;;;2.40;1.90;;;;;;;29.78;29.08;100133.61;218485;1256;139137;-68
2023/05/22 08:07:29;;;;;;;;;;;;;;;29.34;29.12;100132.11;220302;1256;139998;-66
2023/05/22 08:12:34;;;;;;;2.60;2.10;;;;;;;28.93;30.58;100125.80;220314;1256;126421;-67
2023/05/22 08:17:39;;;;;;;3.30;2.40;;;;;;;28.69;30.16;100131.33;218658;1256;152252;-67
2023/05/22 08:22:44;;;;;;;2.00;1.80;;;;;;;28.06;29.84;100128.92;218984;1256;139998;-65
2023/05/22 08:27:50;;;;;;;4.20;3.00;;;;;;;27.84;30.77;100135.95;218664;1256;139979;-68
2023/05/22 08:32:56;;;;;;;6.60;1.90;;;;;;;27.86;31.02;100134.14;217295;1257;138899;-67
2023/05/22 08:37:59;;;;;;;3.70;2.30;;;;;;;27.67;30.45;100129.88;218625;1257;140323;-66
2023/05/22 08:43:05;;;;;;;3.50;2.10;;;;;;;27.38;30.74;100125.20;218005;1256;139493;-69
2023/05/22 08:48:17;;;;;;;4.30;2.20;;;;;;;27.24;31.04;100116.40;218422;1256;139174;-69
2023/05/22 08:53:23;;;;;;;2.30;2.10;;;;;;;27.44;31.01;100111.55;217824;1260;139000;-68
2023/05/22 08:58:28;;;;;;;5.10;2.40;;;;;;;27.58;31.41;100117.91;218913;1258;140833;-68
2023/05/22 09:03:35;;;;;;;2.30;2.10;;;;;;;27.38;31.30;100108.21;218190;1257;139656;-68
2023/05/22 09:08:42;;;;;;;3.60;2.40;;;;;;;27.36;31.57;100108.23;217755;1256;139417;-68
2023/05/22 09:13:50;;;;;;;1.80;1.70;;;;;;;27.59;31.07;100103.95;217398;1257;141040;-68
2023/05/22 09:18:56;;;;;;;2.80;2.40;;;;;;;27.39;30.06;100097.22;217762;1257;139050;-67
2023/05/22 09:24:01;;;;;;;4.90;2.70;;;;;;;27.13;31.33;100093.88;218509;1257;139592;-69
2023/05/22 09:29:08;;;;;;;1.80;1.70;;;;;;;27.22;30.47;100097.30;219613;1256;139399;-69
2023/05/22 09:34:14;;;;;;;2.40;2.20;;;;;;;27.26;30.06;100092.98;219040;1256;139756;-69
2023/05/22 09:39:19;;;;;;;2.70;2.00;;;;;;;27.24;30.46;100091.98;217117;1257;139541;-67
2023/05/22 09:44:25;;;;;;;4.00;2.00;;;;;;;27.13;30.65;100082.23;219741;1256;140495;-67
2023/05/22 09:49:30;;;;;;;1.90;1.80;;;;;;;27.22;30.56;100086.60;219120;1256;139673;-66
2023/05/22 09:54:39;;;;;;;1.90;1.70;;;;;;;27.06;30.21;100082.84;219406;1256;140205;-66
2023/05/22 09:59:52;;;;;;;1.50;1.50;;;;;;;26.96;30.44;100079.31;220394;1256;139831;-70
2023/05/22 10:04:58;;;;;;;2.10;1.90;;;;;;;26.77;30.19;100081.13;219008;1256;139160;-68
2023/05/22 10:10:08;;;;;;;2.60;2.40;;;;;;;26.79;30.22;100075.19;219980;1256;140075;-67
2023/05/22 10:15:12;;;;;;;2.90;1.50;;;;;;;26.91;30.79;100072.65;218695;1256;139500;-67
2023/05/22 10:20:16;;;;;;;10.90;2.30;;;;;;;26.99;29.95;100068.83;218586;1256;139541;-66
2023/05/22 10:25:21;;;;;;;3.40;2.20;;;;;;;27.07;29.53;100074.81;218700;1256;139876;-67
2023/05/22 10:30:32;;;;;;;2.00;1.80;;;;;;;27.09;30.22;100069.48;218926;1256;141023;-67
2023/05/22 10:36:01;;;;;;;3.10;2.30;;;;;;;26.96;29.83;100065.58;218051;1256;139613;-68
2023/05/22 10:41:07;;;;;;;4.70;2.10;;;;;;;26.80;29.30;100060.23;217628;1260;140417;-68
2023/05/22 10:46:13;;;;;;;;;;;;;;;26.90;29.32;100055.63;217651;1256;140074;-69
2023/05/22 10:51:22;;;;;;;3.40;2.10;;;;;;;26.91;29.37;100045.21;218558;1256;125835;-68
2023/05/22 10:56:34;;;;;;;2.40;2.20;;;;;;;26.94;29.48;100040.94;218182;1256;140036;-67
2023/05/22 11:01:39;;;;;;;4.60;2.60;;;;;;;27.08;29.57;100036.30;217591;1257;140109;-64
2023/05/22 11:07:12;;;;;;;7.30;2.40;;;;;;;27.01;29.21;100032.24;217502;1260;139643;-67
2023/05/22 11:12:29;;;;;;;4.80;2.60;;;;;;;26.90;29.07;100025.18;217687;1256;139887;-70
2023/05/22 11:17:50;;;;;;;2.30;2.20;;;;;;;26.75;29.29;100020.66;217246;1260;140395;-70
2023/05/22 11:23:01;;;;;;;7.70;2.70;;;;;;;26.55;29.73;100010.98;217576;1257;140209;-66
2023/05/22 11:28:09;;;;;;;5.90;2.50;;;;;;;26.35;29.77;100005.70;217388;1260;140301;-66
2023/05/22 11:33:14;;;;;;;2.20;2.10;;;;;;;26.17;29.92;100001.58;219150;1257;140142;-65
2023/05/22 11:38:19;;;;;;;3.40;2.80;;;;;;;26.03;29.99;99999.09;218006;1256;140050;-67
2023/05/22 11:43:29;;;;;;;3.00;2.60;;;;;;;25.88;30.05;99995.40;218291;1257;140352;-68
2023/05/22 11:48:35;;;;;;;3.10;2.30;;;;;;;25.90;30.57;100000.08;218070;1256;141200;-70
2023/05/22 11:53:40;;;;;;;4.10;2.20;;;;;;;26.08;30.34;99994.62;218857;1256;139413;-71
2023/05/22 11:58:46;;;;;;;1.90;1.80;;;;;;;26.30;30.81;99987.73;219980;1256;140935;-71
2023/05/22 12:03:53;;;;;;;2.10;1.90;;;;;;;26.44;30.93;99984.67;220245;1256;142329;-70
2023/05/22 12:08:58;;;;;;;3.40;2.20;;;;;;;26.56;30.89;99985.04;220216;1256;139880;-67
2023/05/22 12:14:04;;;;;;;11.50;2.80;;;;;;;26.46;30.92;99988.20;217756;1257;140398;-72
2023/05/22 12:19:11;;;;;;;3.40;2.70;;;;;;;26.27;30.87;99983.80;218306;1257;139956;-68
2023/05/22 12:24:20;;;;;;;11.40;2.60;;;;;;;26.18;31.34;99987.48;219348;1256;139591;-69
2023/05/22 12:29:25;;;;;;;3.40;2.00;;;;;;;26.05;30.98;99990.05;219526;1256;139551;-70
2023/05/22 12:34:34;;;;;;;3.40;3.10;;;;;;;25.93;31.44;99981.60;218476;1256;139047;-71
2023/05/22 12:39:38;;;;;;;8.40;3.20;;;;;;;25.85;31.35;99976.06;217512;1256;140562;-67
2023/05/22 12:44:44;;;;;;;2.70;2.30;;;;;;;25.92;31.43;99976.96;217442;1257;138972;-68
2023/05/22 12:49:50;;;;;;;3.30;3.00;;;;;;;26.01;31.54;99971.08;217216;1260;140856;-67
2023/05/22 12:54:53;;;;;;;2.40;2.20;;;;;;;26.08;31.72;99966.91;217281;1257;139661;-70
2023/05/22 12:59:58;;;;;;;3.20;2.30;;;;;;;25.95;31.04;99964.22;217431;1260;139116;-66
2023/05/22 13:05:04;;;;;;;3.60;2.80;;;;;;;25.96;31.22;99972.00;217476;1256;139529;-73
2023/05/22 13:10:09;;;;;;;5.50;2.60;;;;;;;25.99;31.31;99965.44;218361;1257;140198;-69
2023/05/22 13:15:14;;;;;;;3.60;2.20;;;;;;;26.09;31.52;99963.73;217651;1260;139262;-67
2023/05/22 13:20:18;;;;;;;2.60;2.40;;;;;;;26.22;31.49;99960.55;217602;1257;140160;-66
2023/05/22 13:25:23;;;;;;;4.60;3.10;;;;;;;26.15;31.30;99951.25;217525;1256;139021;-70
2023/05/22 13:30:27;;;;;;;3.30;3.00;;;;;;;26.01;31.43;99943.22;217605;1260;141239;-69
2023/05/22 13:35:31;;;;;;;2.90;2.70;;;;;;;25.90;31.61;99939.13;218842;1256;139450;-65
2023/05/22 13:40:35;;;;;;;5.70;3.70;;;;;;;25.76;31.53;99941.09;217680;1258;140258;-70
2023/05/22 13:45:43;;;;;;;4.40;2.90;;;;;;;25.64;31.52;99937.04;218814;1257;140482;-71
2023/05/22 13:50:48;;;;;;;4.80;2.30;;;;;;;25.52;31.31;99932.45;218195;1256;140437;-71
2023/05/22 13:55:54;;;;;;;3.10;2.70;;;;;;;25.48;31.40;99925.75;217477;1257;139279;-71
2023/05/22 14:01:00;;;;;;;5.50;2.60;;;;;;;25.40;31.74;99923.55;220194;1256;139835;-72
2023/05/22 14:06:08;;;;;;;2.80;2.60;;;;;;;25.30;31.49;99917.86;218320;1258;139211;-70
2023/05/22 14:11:15;;;;;;;9.50;3.20;;;;;;;25.34;31.53;99913.67;219141;1257;139898;-71
2023/05/22 14:16:21;;;;;;;8.10;3.70;;;;;;;25.31;31.56;99911.23;220272;1256;139728;-73
2023/05/22 14:21:26;;;;;;;3.20;2.90;;;;;;;25.29;31.80;99910.00;217686;1260;140050;-71
2023/05/22 14:26:32;;;;;;;3.90;2.40;;;;;;;25.30;32.21;99905.31;219157;1256;138467;-72
2023/05/22 14:31:48;;;;;;;3.00;2.70;;;;;;;25.19;31.81;99900.31;217970;1257;140144;-70
2023/05/22 14:36:57;;;;;;;5.70;3.00;;;;;;;25.03;31.86;99898.42;218729;1256;139397;-69
2023/05/22 14:42:02;;;;;;;2.60;2.40;;;;;;;24.94;31.56;99890.48;217875;1256;141493;-70
2023/05/22 14:47:07;;;;;;;4.00;2.90;;;;;;;24.77;31.93;99890.71;217853;1257;139922;-71
2023/05/22 14:52:13;;;;;;;3.50;3.20;;;;;;;24.56;31.80;99885.98;218247;1256;140888;-76
2023/05/22 14:57:18;;;;;;;4.80;2.60;;;;;;;24.41;32.08;99878.96;218449;1256;140687;-70
2023/05/22 15:02:22;;;;;;;3.40;2.80;;;;;;;24.23;32.27;99877.84;218640;1257;140827;-67
2023/05/22 15:07:27;;;;;;;3.50;2.80;;;;;;;24.12;32.49;99873.94;217649;1257;139613;-70
2023/05/22 15:12:48;;;;;;;3.40;2.20;;;;;;;24.13;32.35;99867.65;218002;1257;140029;-70
2023/05/22 15:17:52;;;;;;;2.80;2.20;;;;;;;23.94;32.51;99869.02;219173;1257;139236;-68
2023/05/22 15:22:58;;;;;;;2.80;2.60;;;;;;;23.83;32.48;99868.23;217858;1257;739614;-66
2023/05/22 15:28:06;;;;;;;2.80;2.60;;;;;;;23.75;32.37;99864.48;218090;1257;140667;-70
2023/05/22 15:33:14;;;;;;;2.30;2.10;;;;;;;23.67;32.61;99852.78;217577;1256;139662;-69
2023/05/22 15:38:20;;;;;;;3.50;2.10;;;;;;;23.55;33.05;99855.36;217647;1259;139656;-70
2023/05/22 15:43:27;;;;;;;5.10;3.20;;;;;;;23.44;32.98;99847.83;218863;1256;140157;-82
2023/05/22 15:48:34;;;;;;;5.30;3.00;;;;;;;23.35;33.18;99844.12;218149;1260;140102;-72
2023/05/22 15:53:38;;;;;;;5.90;3.00;;;;;;;23.32;32.90;99839.70;217974;1257;140002;-73
2023/05/22 15:58:48;;;;;;;6.40;2.90;;;;;;;23.29;32.98;99830.95;218317;1257;140707;-72
2023/05/22 16:03:54;;;;;;;4.50;2.80;;;;;;;23.26;32.90;99835.45;219900;1256;140199;-74
2023/05/22 16:09:00;;;;;;;5.60;2.60;;;;;;;23.14;33.04;99830.09;220421;1256;140031;-69
2023/05/22 16:14:04;;;;;;;2.40;2.10;;;;;;;23.08;32.76;99823.35;220232;1256;139566;-69
2023/05/22 16:19:08;;;;;;;2.50;2.30;;;;;;;23.07;33.34;99820.59;219995;1256;140402;-77
2023/05/22 16:24:13;;;;;;;2.90;2.50;;;;;;;23.03;33.36;99818.89;217957;1260;141598;-74
2023/05/22 16:29:19;;;;;;;3.80;2.80;;;;;;;22.92;33.33;99818.83;219479;1256;139547;-74
2023/05/22 16:34:24;;;;;;;6.30;2.40;;;;;;;22.84;33.52;99824.29;219333;1256;139639;-72
2023/05/22 16:39:29;;;;;;;3.20;2.20;;;;;;;22.80;33.77;99823.95;217735;1257;140293;-73
2023/05/22 16:44:33;;;;;;;2.50;2.20;;;;;;;22.70;33.51;99830.45;217776;1256;139976;-73
2023/05/22 16:49:40;;;;;;;5.00;2.90;;;;;;;22.61;33.79;99829.69;217661;1257;139931;-70
2023/05/22 16:54:45;;;;;;;2.90;2.30;;;;;;;22.50;33.71;99834.90;217813;1256;138937;-75
2023/05/22 16:59:49;;;;;;;4.40;3.00;;;;;;;22.38;34.06;99837.77;218324;1257;138998;-71
2023/05/22 17:04:55;;;;;;;2.30;2.20;;;;;;;22.27;34.40;99835.89;217668;1260;249023;-86
2023/05/22 17:10:00;;;;;;;7.10;3.10;;;;;;;22.15;34.55;99834.48;218735;1258;139660;-77
2023/05/22 17:15:06;;;;;;;2.60;2.40;;;;;;;21.98;34.92;99833.96;218731;1257;139917;-80
2023/05/22 17:20:11;;;;;;;3.00;2.20;;;;;;;21.80;35.40;99832.02;217513;1257;139644;-77
2023/05/22 17:25:16;;;;;;;7.30;3.30;;;;;;;21.64;35.80;99828.60;218200;1257;139438;-78
2023/05/22 17:30:20;;;;;;;2.70;2.00;;;;;;;21.47;36.26;99825.80;217603;1256;139951;-76
2023/05/22 17:35:26;;;;;;;4.30;2.50;;;;;;;21.36;36.53;99823.64;217734;1257;139343;-70
2023/05/22 17:40:31;;;;;;;4.00;3.20;;;;;;;21.21;37.23;99819.41;218101;1257;139671;-70
2023/05/22 17:45:49;;;;;;;3.60;2.90;;;;;;;21.05;37.90;99816.73;218947;1257;139337;-72
2023/05/22 17:50:54;;;;;;;7.00;2.80;;;;;;;20.86;38.74;99814.41;218504;1260;139427;-67
2023/05/22 17:56:01;;;;;;;3.50;3.20;;;;;;;20.65;39.59;99819.05;218760;1256;139097;-65
2023/05/22 18:01:06;;;;;;;3.70;2.60;;;;;;;20.42;40.25;99819.16;217471;1257;139619;-66
2023/05/22 18:06:11;;;;;;;6.00;3.50;;;;;;;20.20;40.84;99816.77;220508;1256;139411;-66
2023/05/22 18:11:15;;;;;;;5.90;3.20;;;;;;;19.97;41.43;99814.23;220531;1257;139213;-71
2023/05/22 18:16:19;;;;;;;13.50;3.40;;;;;;;19.74;42.17;99814.79;220437;1256;139689;-73
2023/05/22 18:21:23;;;;;;;5.10;2.20;;;;;;;19.52;42.95;99810.82;218484;1256;139376;-73
2023/05/22 18:26:28;;;;;;;5.40;3.60;;;;;;;19.29;43.31;99815.70;217511;1260;139133;-73
2023/05/22 18:31:32;;;;;;;7.70;3.90;;;;;;;19.06;43.81;99816.05;219204;1262;140452;-70
2023/05/22 18:36:40;;;;;;;11.40;4.30;;;;;;;18.83;44.79;99814.37;217648;1257;140313;-67
2023/05/22 18:41:45;;;;;;;4.40;4.00;;;;;;;18.58;45.19;99814.56;218825;1257;140025;-66
2023/05/22 18:46:49;;;;;;;6.50;3.70;;;;;;;18.30;45.55;99822.95;217752;1257;139287;-73
2023/05/22 18:51:56;;;;;;;3.70;3.20;;;;;;;18.06;45.70;99825.91;217443;1257;141711;-68
2023/05/22 18:57:00;;;;;;;5.80;3.50;;;;;;;17.83;46.15;99829.36;218149;1260;139663;-69
2023/05/22 19:02:05;;;;;;;11.00;3.80;;;;;;;17.63;46.60;99829.59;217661;1257;139615;-68
2023/05/22 19:07:11;;;;;;;7.60;3.50;;;;;;;17.43;46.78;99827.04;218857;1257;151213;-69
2023/05/22 19:12:16;;;;;;;8.90;3.70;;;;;;;17.22;47.21;99834.67;217287;1257;139070;-69
2023/05/22 19:17:22;;;;;;;6.50;3.90;;;;;;;17.04;47.57;99840.05;217808;1257;206708;-74
2023/05/22 19:22:28;;;;;;;7.00;5.00;;;;;;;16.85;48.05;99838.69;217810;1257;139293;-74
2023/05/22 19:27:33;;;;;;;6.50;4.80;;;;;;;16.66;48.45;99836.02;217702;1257;139892;-70
2023/05/22 19:32:44;;;;;;;4.70;4.30;;;;;;;16.48;48.86;99833.83;218585;1257;140431;-72
2023/05/22 19:37:49;;;;;;;7.20;4.00;;;;;;;16.30;49.50;99838.25;218443;1259;139573;-74
2023/05/22 19:42:53;;;;;;;5.90;5.20;;;;;;;16.13;49.63;99838.42;219339;1260;139065;-83
2023/05/22 19:47:59;;;;;;;9.80;4.20;;;;;;;15.92;50.27;99839.05;218495;1257;139975;-72
2023/05/22 19:53:04;;;;;;;5.40;4.70;;;;;;;15.67;51.56;99836.20;217836;1260;139729;-70
2023/05/22 19:58:09;;;;;;;10.90;4.50;;;;;;;15.44;52.56;99835.73;219191;1257;140333;-70
2023/05/22 20:03:15;;;;;;;10.00;4.30;;;;;;;15.28;53.41;99831.02;218221;1260;140189;-68
2023/05/22 20:08:22;;;;;;;10.10;3.80;;;;;;;15.14;53.74;99824.67;220282;1257;140127;-68
2023/05/22 20:13:27;;;;;;;6.80;4.50;;;;;;;15.00;54.25;99820.64;220288;1257;139976;-75
2023/05/22 20:18:32;;;;;;;5.00;4.40;;;;;;;14.81;54.63;99820.81;220095;1257;139084;-80
2023/05/22 20:23:38;;;;;;;7.40;3.90;;;;;;;14.65;55.31;99814.98;220128;1256;139893;-68
2023/05/22 20:28:44;;;;;;;7.00;4.70;;;;;;;14.54;55.62;99813.79;220461;1257;139695;-67
2023/05/22 20:33:49;;;;;;;4.40;4.00;;;;;;;14.40;56.03;99811.37;218457;1257;139347;-68
2023/05/22 20:38:53;;;;;;;8.20;5.10;;;;;;;14.25;56.17;99810.44;218057;1257;139628;-71
2023/05/22 20:43:58;;;;;;;6.30;4.80;;;;;;;13.98;56.34;99809.78;219431;1256;139260;-70
2023/05/22 20:49:04;;;;;;;5.80;5.30;;;;;;;13.74;56.92;99812.20;219518;1262;140095;-71
2023/05/22 20:54:08;;;;;;;5.20;4.60;;;;;;;13.63;57.51;99808.98;218558;1260;140957;-72
2023/05/22 20:59:14;;;;;;;9.10;5.00;;;;;;;13.53;57.81;99806.94;218068;1257;140727;-73
2023/05/22 21:04:19;;;;;;;6.60;4.80;;;;;;;13.40;58.37;99806.73;217668;1257;140278;-73
2023/05/22 21:09:24;;;;;;;9.90;5.40;;;;;;;13.26;58.50;99811.84;218571;1257;139682;-72
2023/05/22 21:14:29;;;;;;;5.10;4.60;;;;;;;13.06;58.65;99811.91;217478;1260;139230;-72
2023/05/22 21:19:33;;;;;;;6.60;5.20;;;;;;;12.88;59.40;99807.67;219071;1256;140154;-69
2023/05/22 21:24:37;;;;;;;7.10;5.00;;;;;;;12.76;59.94;99807.14;218184;1260;140778;-77
2023/05/22 21:29:41;;;;;;;5.50;4.90;;;;;;;12.67;60.28;99810.10;217819;1257;139757;-75
2023/05/22 21:34:45;;;;;;;5.40;4.20;;;;;;;12.54;60.47;99814.63;218472;1258;139989;-76
2023/05/22 21:39:50;;;;;;;5.90;5.30;;;;;;;12.40;60.58;99813.89;218194;1260;140151;-82
2023/05/22 21:44:54;;;;;;;7.70;4.70;;;;;;;12.24;61.07;99815.08;218351;1257;140983;-82
2023/05/22 21:49:58;;;;;;;10.40;4.60;;;;;;;12.03;61.56;99817.74;218142;1258;140891;-79
2023/05/22 21:55:06;;;;;;;8.50;6.30;;;;;;;11.89;62.11;99824.23;218155;1256;139834;-74
2023/05/22 22:00:14;;;;;;;9.60;5.40;;;;;;;11.84;62.86;99826.12;219128;1260;139787;-71
2023/05/22 22:05:18;;;;;;;6.40;4.40;;;;;;;11.73;62.59;99824.42;218669;1257;140371;-68
2023/05/22 22:10:23;;;;;;;7.70;4.80;;;;;;;11.56;62.89;99824.20;217936;1260;139779;-69
2023/05/22 22:15:27;;;;;;;7.10;5.20;;;;;;;11.42;63.30;99822.52;220327;1257;139081;-67
2023/05/22 22:20:32;;;;;;;8.90;7.10;;;;;;;11.36;64.04;99821.41;220049;1257;139969;-67
2023/05/22 22:25:48;;;;;;;11.10;7.60;;;;;;;11.33;64.46;99814.31;219428;1256;141917;-66
2023/05/22 22:30:53;;;;;;;15.90;8.30;;;;;;;11.29;64.37;99813.19;218501;1257;140896;-68
2023/05/22 22:35:59;;;;;;;13.00;8.60;;;;;;;11.17;64.45;99808.77;218320;1256;139985;-75
2023/05/22 22:41:03;;;;;;;17.20;9.40;;;;;;;11.02;64.70;99806.02;219208;1257;141389;-73
2023/05/22 22:46:09;;;;;;;22.50;13.20;;;;;;;10.92;65.21;99803.27;218362;1260;141343;-74
2023/05/22 22:51:13;;;;;;;21.80;12.30;;;;;;;10.89;65.55;99805.42;218940;1256;140706;-73
2023/05/22 22:56:18;;;;;;;25.00;11.60;;;;;;;10.84;65.67;99803.30;217874;1260;139982;-72
2023/05/22 23:01:22;;;;;;;14.10;10.40;;;;;;;10.75;65.62;99799.31;217760;1261;140107;-72
2023/05/22 23:06:28;;;;;;;15.10;9.40;;;;;;;10.67;65.88;99798.79;218656;1257;140835;-70
2023/05/22 23:11:38;;;;;;;20.30;9.60;;;;;;;10.60;66.15;99790.94;217628;1260;139886;-68
2023/05/22 23:16:44;;;;;;;10.60;8.60;;;;;;;10.56;66.46;99784.14;217938;1260;141045;-68
2023/05/22 23:21:50;;;;;;;8.50;6.30;;;;;;;10.52;66.66;99779.34;218013;1257;140525;-67